Time;durP1;ratioP1;P1;durP2;ratioP2;P2;SDS_P1;SDS_P2;PMS_P1;PMS_P2;Temp;Humidity;BMP_temperature;BMP_pressure;BME280_temperature;BME280_humidity;BME280_pressure;Samples;Min_cycle;Max_cycle;Signal;HPM_P1;HPM_P2
2023/05/28 00:01:44;;;;;;;8.37;3.37;;;14.40;99.90;;;;;;6270506;22;20430;-77
2023/05/28 00:04:16;;;;;;;9.32;3.05;;;14.40;99.90;;;;;;6270762;22;20395;-77
2023/05/28 00:06:41;;;;;;;11.38;4.25;;;14.30;99.90;;;;;;6271405;22;20823;-77
2023/05/28 00:09:09;;;;;;;9.10;3.47;;;14.30;99.90;;;;;;6271814;22;20352;-77
2023/05/28 00:11:34;;;;;;;9.90;3.70;;;14.20;99.90;;;;;;6271306;22;20466;-77
2023/05/28 00:14:00;;;;;;;8.30;3.70;;;14.10;99.90;;;;;;6271314;22;20371;-77
2023/05/28 00:16:26;;;;;;;10.70;3.50;;;14.00;99.90;;;;;;6270446;22;20436;-77
2023/05/28 00:18:51;;;;;;;14.70;4.43;;;13.90;99.90;;;;;;6270237;22;20358;-77
2023/05/28 00:21:17;;;;;;;11.50;3.28;;;13.80;1.00;;;;;;6271527;22;20436;-77
2023/05/28 00:23:42;;;;;;;11.77;3.73;;;13.70;1.00;;;;;;6271011;22;20352;-77
2023/05/28 00:26:08;;;;;;;14.43;4.07;;;13.70;1.00;;;;;;6271335;22;20814;-77
2023/05/28 00:28:33;;;;;;;12.43;4.45;;;13.60;1.00;;;;;;6271540;22;20360;-76
2023/05/28 00:30:59;;;;;;;12.88;3.75;;;13.60;1.00;;;;;;6272608;22;20380;-76
2023/05/28 00:33:25;;;;;;;11.47;4.47;;;13.60;1.00;;;;;;6273548;22;20344;-77
2023/05/28 00:35:55;;;;;;;11.77;3.60;;;13.50;1.00;;;;;;6271888;22;20434;-77
2023/05/28 00:38:21;;;;;;;10.68;4.15;;;13.50;1.00;;;;;;6271608;22;20785;-77
2023/05/28 00:40:47;;;;;;;9.90;3.90;;;13.30;1.00;;;;;;6271636;22;20421;-76
2023/05/28 00:43:12;;;;;;;10.68;4.00;;;13.30;1.00;;;;;;6271426;22;20728;-77
2023/05/28 00:45:38;;;;;;;9.87;3.83;;;13.20;99.60;;;;;;6270822;22;20419;-77
2023/05/28 00:48:03;;;;;;;11.90;3.87;;;13.20;99.90;;;;;;6270859;22;20443;-77
2023/05/28 00:50:29;;;;;;;12.50;3.90;;;13.20;99.90;;;;;;6270555;22;20355;-77
2023/05/28 00:52:55;;;;;;;8.55;3.67;;;13.20;99.90;;;;;;6270845;22;20357;-77
2023/05/28 00:55:22;;;;;;;12.07;3.83;;;13.10;99.90;;;;;;6270817;22;20406;-77
2023/05/28 00:57:49;;;;;;;10.07;3.58;;;13.10;99.90;;;;;;6271109;22;20810;-76
2023/05/28 01:00:16;;;;;;;10.60;3.60;;;13.00;99.90;;;;;;6270457;22;20393;-76
2023/05/28 01:02:42;;;;;;;10.50;4.10;;;12.90;99.90;;;;;;6269863;22;20466;-76
2023/05/28 01:05:09;;;;;;;10.13;4.18;;;12.90;99.90;;;;;;6270597;22;20356;-76
2023/05/28 01:07:35;;;;;;;12.43;4.00;;;12.90;99.90;;;;;;6270847;22;20675;-76
2023/05/28 01:10:02;;;;;;;10.70;4.37;;;12.80;1.00;;;;;;6270899;22;20350;-76
2023/05/28 01:12:49;;;;;;;12.50;3.92;;;12.90;99.90;;;;;;6271086;22;20356;-76
2023/05/28 01:15:15;;;;;;;12.40;3.88;;;12.80;1.00;;;;;;6272061;22;20387;-76
2023/05/28 01:17:40;;;;;;;10.23;3.60;;;12.70;1.00;;;;;;6271425;22;20345;-76
2023/05/28 01:20:11;;;;;;;11.55;4.25;;;12.70;1.00;;;;;;6270529;22;20806;-76
2023/05/28 01:22:38;;;;;;;12.52;4.00;;;12.70;1.00;;;;;;6271046;22;20349;-76
2023/05/28 01:25:09;;;;;;;10.73;4.00;;;12.60;1.00;;;;;;6270871;22;20356;-76
2023/05/28 01:27:43;;;;;;;12.65;4.07;;;12.60;1.00;;;;;;6270613;22;20353;-76
2023/05/28 01:30:11;;;;;;;11.60;4.50;;;12.60;1.00;;;;;;6270638;22;20753;-77
2023/05/28 01:32:37;;;;;;;11.45;4.13;;;12.60;1.00;;;;;;6270612;22;20344;-77
2023/05/28 01:35:05;;;;;;;10.65;4.25;;;12.50;1.00;;;;;;6271140;22;20819;-77
2023/05/28 01:37:33;;;;;;;14.20;5.05;;;12.50;1.00;;;;;;6271105;22;20348;-78
2023/05/28 01:40:02;;;;;;;9.93;3.85;;;12.50;1.00;;;;;;6270783;22;21183;-77
2023/05/28 01:42:29;;;;;;;14.10;4.43;;;12.60;1.00;;;;;;6270293;22;20687;-77
2023/05/28 01:44:56;;;;;;;15.68;4.80;;;12.50;1.00;;;;;;6270735;22;20443;-77
2023/05/28 01:47:23;;;;;;;11.27;3.88;;;12.50;1.00;;;;;;6269989;22;20442;-76
2023/05/28 01:49:49;;;;;;;12.77;4.30;;;12.50;1.00;;;;;;6269907;22;20355;-76
2023/05/28 01:52:15;;;;;;;11.40;4.20;;;12.40;1.00;;;;;;6269409;22;20348;-76
2023/05/28 01:54:40;;;;;;;13.68;3.80;;;12.30;86.70;;;;;;6270074;22;20383;-76
2023/05/28 01:57:12;;;;;;;11.37;4.27;;;12.30;99.90;;;;;;6269070;22;20730;-76
2023/05/28 01:59:38;;;;;;;10.17;4.27;;;12.30;81.70;;;;;;6269994;22;20348;-76
2023/05/28 02:02:05;;;;;;;9.60;3.70;;;12.30;1.00;;;;;;6269061;22;20447;-76
2023/05/28 02:04:30;;;;;;;13.68;4.20;;;12.30;32.00;;;;;;6269006;22;20340;-76
2023/05/28 02:06:56;;;;;;;10.20;3.70;;;12.20;45.60;;;;;;6269717;22;20437;-76
2023/05/28 02:09:22;;;;;;;10.77;3.57;;;12.20;99.00;;;;;;6269672;22;20677;-76
2023/05/28 02:11:47;;;;;;;10.63;4.05;;;12.10;99.90;;;;;;6268923;22;20367;-76
2023/05/28 02:14:14;;;;;;;10.83;4.00;;;12.00;99.90;;;;;;6268746;22;20752;-76
2023/05/28 02:16:42;;;;;;;9.93;3.80;;;11.90;99.90;;;;;;6270956;22;20432;-76
2023/05/28 02:19:09;;;;;;;9.90;4.30;;;11.90;99.90;;;;;;6270713;22;20371;-76
2023/05/28 02:21:36;;;;;;;11.02;3.88;;;12.00;99.90;;;;;;6270968;22;20683;-76
2023/05/28 02:24:01;;;;;;;10.75;4.25;;;12.10;99.90;;;;;;6270856;22;20344;-76
2023/05/28 02:26:27;;;;;;;9.33;3.97;;;12.10;99.90;;;;;;6270407;22;20348;-76
2023/05/28 02:28:53;;;;;;;10.15;4.30;;;12.10;99.90;;;;;;6270937;22;20413;-76
2023/05/28 02:31:18;;;;;;;10.33;3.87;;;12.10;99.90;;;;;;6272113;22;20908;-76
2023/05/28 02:33:44;;;;;;;10.60;4.07;;;12.00;99.90;;;;;;6271489;22;20387;-77
2023/05/28 02:36:13;;;;;;;9.57;3.95;;;12.00;99.90;;;;;;6271390;22;20441;-76
2023/05/28 02:38:40;;;;;;;10.80;3.65;;;12.00;99.90;;;;;;6271743;22;20351;-76
2023/05/28 02:41:06;;;;;;;12.63;3.85;;;12.00;99.90;;;;;;6271144;22;20357;-76
2023/05/28 02:43:31;;;;;;;13.80;4.00;;;11.90;99.90;;;;;;6271783;22;20474;-75
2023/05/28 02:45:57;;;;;;;11.30;4.33;;;11.90;99.90;;;;;;6271689;22;21008;-76
2023/05/28 02:48:22;;;;;;;10.97;4.60;;;11.90;99.90;;;;;;6271374;22;20356;-76
2023/05/28 02:50:48;;;;;;;12.23;4.40;;;11.90;99.90;;;;;;6272073;22;20443;-76
2023/05/28 02:53:14;;;;;;;10.50;4.43;;;11.80;99.90;;;;;;6271894;22;20355;-76
2023/05/28 02:55:40;;;;;;;8.75;4.00;;;11.80;99.90;;;;;;6271154;22;20864;-76
2023/05/28 02:58:05;;;;;;;13.80;4.25;;;11.70;1.00;;;;;;6271384;22;20376;-76
2023/05/28 03:00:31;;;;;;;10.40;4.80;;;11.70;99.90;;;;;;6271809;22;20421;-76
2023/05/28 03:02:57;;;;;;;9.98;4.10;;;11.60;1.00;;;;;;6271401;22;20776;-76
2023/05/28 03:05:22;;;;;;;11.07;4.00;;;11.60;1.00;;;;;;6271599;22;20443;-76
2023/05/28 03:07:48;;;;;;;10.13;3.80;;;11.60;3.10;;;;;;6272466;22;20354;-76
2023/05/28 03:10:14;;;;;;;10.27;4.00;;;11.60;1.00;;;;;;6271135;22;20401;-76
2023/05/28 03:12:39;;;;;;;12.50;3.90;;;11.60;1.00;;;;;;6271257;22;20405;-76
2023/05/28 03:15:05;;;;;;;10.43;3.28;;;11.50;1.00;;;;;;6271572;22;20703;-76
2023/05/28 03:17:31;;;;;;;11.90;3.95;;;11.50;4.70;;;;;;6271563;22;20344;-76
2023/05/28 03:19:56;;;;;;;12.53;3.87;;;11.40;99.90;;;;;;6271175;22;20356;-76
2023/05/28 03:22:22;;;;;;;12.20;4.53;;;11.30;1.00;;;;;;6271295;22;20349;-76
2023/05/28 03:24:47;;;;;;;9.70;3.67;;;11.40;1.00;;;;;;6271249;22;20716;-76
2023/05/28 03:27:13;;;;;;;14.48;4.40;;;11.40;99.90;;;;;;6270383;22;20443;-76
2023/05/28 03:29:38;;;;;;;12.77;3.97;;;11.40;30.20;;;;;;6271303;22;20349;-76
2023/05/28 03:32:04;;;;;;;9.70;3.93;;;11.30;99.90;;;;;;6270956;22;20371;-76
2023/05/28 03:34:30;;;;;;;11.38;3.92;;;11.30;1.00;;;;;;6271372;22;20380;-76
2023/05/28 03:36:55;;;;;;;9.10;3.70;;;11.20;1.00;;;;;;6271251;22;20360;-76
2023/05/28 03:39:21;;;;;;;10.67;4.20;;;11.20;1.00;;;;;;6270602;22;20344;-76
2023/05/28 03:41:48;;;;;;;10.30;3.50;;;11.20;1.00;;;;;;6271837;22;20349;-76
2023/05/28 03:44:16;;;;;;;12.82;4.50;;;11.10;1.00;;;;;;6271395;22;20364;-76
2023/05/28 03:46:41;;;;;;;13.80;3.70;;;11.10;71.30;;;;;;6270938;22;20348;-76
2023/05/28 03:49:07;;;;;;;11.82;3.70;;;11.00;1.00;;;;;;6271296;22;20360;-76
2023/05/28 03:51:32;;;;;;;12.97;4.30;;;11.00;1.00;;;;;;6271312;22;20360;-76
2023/05/28 03:53:58;;;;;;;10.32;3.92;;;11.10;1.00;;;;;;6271000;22;20419;-76
2023/05/28 03:56:24;;;;;;;10.03;3.40;;;11.10;57.20;;;;;;6271149;22;20446;-76
2023/05/28 03:58:50;;;;;;;10.52;4.22;;;11.10;1.00;;;;;;6271561;22;20398;-76
2023/05/28 04:01:15;;;;;;;9.27;3.83;;;11.00;1.00;;;;;;6271556;22;20734;-76
2023/05/28 04:03:41;;;;;;;10.13;3.85;;;11.00;1.00;;;;;;6271109;22;20347;-76
2023/05/28 04:06:08;;;;;;;10.77;3.90;;;11.00;99.90;;;;;;6270586;22;20447;-76
2023/05/28 04:08:34;;;;;;;14.60;4.65;;;11.00;99.90;;;;;;6270526;22;20364;-76
2023/05/28 04:10:59;;;;;;;12.57;4.50;;;11.00;99.90;;;;;;6270825;22;20348;-76
2023/05/28 04:13:25;;;;;;;12.52;4.50;;;11.00;1.00;;;;;;6270661;22;20800;-75
2023/05/28 04:15:51;;;;;;;9.15;3.47;;;11.20;99.90;;;;;;6270462;22;20732;-76
2023/05/28 04:18:16;;;;;;;11.00;4.60;;;11.20;99.90;;;;;;6271306;22;20360;-77
2023/05/28 04:20:42;;;;;;;9.03;3.27;;;11.40;99.90;;;;;;6270672;22;20431;-76
2023/05/28 04:23:08;;;;;;;9.65;3.92;;;11.40;63.20;;;;;;6270448;22;20361;-76
2023/05/28 04:25:33;;;;;;;9.63;3.90;;;11.50;99.90;;;;;;6270728;22;20442;-76
2023/05/28 04:28:00;;;;;;;10.10;3.23;;;11.60;99.90;;;;;;6270330;22;20413;-76
2023/05/28 04:30:26;;;;;;;10.23;4.20;;;11.70;1.00;;;;;;6270383;22;20376;-76
2023/05/28 04:32:51;;;;;;;11.80;4.13;;;11.80;99.90;;;;;;6270886;22;20367;-76
2023/05/28 04:35:17;;;;;;;11.82;3.95;;;11.90;99.90;;;;;;6271091;22;20379;-76
2023/05/28 04:37:44;;;;;;;12.80;4.20;;;11.90;99.90;;;;;;6270143;22;20636;-76
2023/05/28 04:40:13;;;;;;;12.32;4.20;;;12.10;99.90;;;;;;6270556;22;20356;-76
2023/05/28 04:42:40;;;;;;;10.38;4.20;;;12.20;1.00;;;;;;6270542;22;20356;-77
2023/05/28 04:45:10;;;;;;;10.90;4.10;;;12.30;1.00;;;;;;6270438;22;20758;-76
2023/05/28 04:47:39;;;;;;;10.65;3.70;;;12.40;1.00;;;;;;6270512;22;20368;-76
2023/05/28 04:50:06;;;;;;;14.23;5.28;;;12.60;99.90;;;;;;6270324;22;21148;-76
2023/05/28 04:52:35;;;;;;;13.35;4.60;;;12.80;1.00;;;;;;6270541;22;20352;-77
2023/05/28 04:55:04;;;;;;;11.52;5.07;;;13.20;1.00;;;;;;6270529;22;20627;-76
2023/05/28 04:57:30;;;;;;;10.63;4.32;;;14.20;99.90;;;;;;6270844;22;20721;-76
2023/05/28 04:59:56;;;;;;;14.77;5.13;;;15.50;1.00;;;;;;6270559;22;20375;-76
2023/05/28 05:02:21;;;;;;;12.27;5.28;;;16.80;1.00;;;;;;6269795;22;20431;-76
2023/05/28 05:04:47;;;;;;;12.40;5.47;;;17.90;99.90;;;;;;6270570;22;20351;-76
2023/05/28 05:07:14;;;;;;;12.67;5.30;;;18.80;99.90;;;;;;6269721;22;20754;-77
2023/05/28 05:09:40;;;;;;;12.88;5.00;;;19.30;99.90;;;;;;6269687;22;20355;-77
2023/05/28 05:12:07;;;;;;;14.60;5.40;;;19.90;99.90;;;;;;6270110;22;20344;-77
2023/05/28 05:14:33;;;;;;;14.68;5.10;;;20.80;99.90;;;;;;6269958;22;20459;-78
2023/05/28 05:16:58;;;;;;;11.73;4.87;;;21.10;99.90;;;;;;6269886;22;20372;-77
2023/05/28 05:19:25;;;;;;;10.90;5.13;;;21.80;99.90;;;;;;6269804;22;20731;-77
2023/05/28 05:21:51;;;;;;;13.02;5.40;;;22.30;99.90;;;;;;6269661;22;20742;-77
2023/05/28 05:24:16;;;;;;;12.20;5.57;;;22.90;99.90;;;;;;6270561;22;20348;-77
2023/05/28 05:26:42;;;;;;;13.70;6.30;;;23.20;99.90;;;;;;6270584;22;20348;-77
2023/05/28 05:29:07;;;;;;;11.27;6.30;;;23.20;99.90;;;;;;6270178;22;20368;-77
2023/05/28 05:31:33;;;;;;;10.70;6.07;;;23.20;99.90;;;;;;6269781;22;20379;-77
2023/05/28 05:33:58;;;;;;;11.30;6.30;;;23.30;99.90;;;;;;6269984;22;20351;-77
2023/05/28 05:36:24;;;;;;;11.40;6.50;;;23.50;99.90;;;;;;6269965;22;20364;-77
2023/05/28 05:38:49;;;;;;;12.88;6.80;;;23.50;99.90;;;;;;6270416;22;20356;-77
2023/05/28 05:41:15;;;;;;;12.82;6.82;;;23.70;99.90;;;;;;6270139;22;20350;-77
2023/05/28 05:43:40;;;;;;;15.70;7.63;;;23.80;99.90;;;;;;6270276;22;20407;-78
2023/05/28 05:46:06;;;;;;;11.90;8.10;;;24.20;99.90;;;;;;6270182;22;20360;-78
2023/05/28 05:48:31;;;;;;;12.70;8.17;;;24.90;99.90;;;;;;6269561;22;20364;-78
2023/05/28 05:51:02;;;;;;;13.25;9.48;;;24.80;99.90;;;;;;6269964;22;20730;-78
2023/05/28 05:53:29;;;;;;;10.68;7.75;;;25.10;99.90;;;;;;6270855;22;20356;-78
2023/05/28 05:55:54;;;;;;;13.80;8.10;;;25.70;99.90;;;;;;6269778;22;20846;-78
2023/05/28 05:58:20;;;;;;;10.50;8.10;;;24.90;99.90;;;;;;6270148;22;20383;-78
2023/05/28 06:00:47;;;;;;;12.48;8.07;;;24.90;99.90;;;;;;6270721;22;20363;-78
2023/05/28 06:03:14;;;;;;;12.93;8.73;;;24.90;99.90;;;;;;6268746;22;20452;-78
2023/05/28 06:05:40;;;;;;;14.98;8.70;;;25.10;99.90;;;;;;6267853;22;20363;-78
2023/05/28 06:08:05;;;;;;;12.90;10.15;;;26.20;99.90;;;;;;6269310;22;20359;-78
2023/05/28 06:10:31;;;;;;;10.90;8.20;;;27.50;99.90;;;;;;6272512;22;20838;-78
2023/05/28 06:13:00;;;;;;;15.20;7.18;;;27.40;99.90;;;;;;6272423;22;20398;-78
2023/05/28 06:15:26;;;;;;;13.15;5.13;;;27.20;99.90;;;;;;6270497;22;20464;-77
2023/05/28 06:17:52;;;;;;;11.97;4.90;;;26.60;99.90;;;;;;6269224;22;20360;-77
2023/05/28 06:20:19;;;;;;;8.83;4.13;;;26.50;99.90;;;;;;6270352;22;20356;-77
2023/05/28 06:22:45;;;;;;;10.40;4.80;;;26.50;99.90;;;;;;6269829;22;20359;-77
2023/05/28 06:25:11;;;;;;;11.18;4.50;;;26.00;99.90;;;;;;6270016;22;20392;-78
2023/05/28 06:27:37;;;;;;;13.63;4.67;;;26.00;99.90;;;;;;6269380;22;20360;-77
2023/05/28 06:30:04;;;;;;;11.40;4.50;;;26.20;99.90;;;;;;6269538;22;20376;-77
2023/05/28 06:32:30;;;;;;;9.82;4.82;;;26.50;99.90;;;;;;6269524;22;20387;-78
2023/05/28 06:34:56;;;;;;;11.85;4.60;;;26.50;99.90;;;;;;6269445;22;20376;-77
2023/05/28 06:37:21;;;;;;;11.35;8.40;;;26.30;99.90;;;;;;6269359;22;20410;-77
2023/05/28 06:39:47;;;;;;;13.20;9.13;;;26.50;99.90;;;;;;6270054;22;20968;-77
2023/05/28 06:42:12;;;;;;;19.83;7.40;;;26.20;99.90;;;;;;6269115;22;20344;-77
2023/05/28 06:44:38;;;;;;;11.10;7.90;;;26.30;99.90;;;;;;6269773;22;20376;-77
2023/05/28 06:47:03;;;;;;;9.98;4.13;;;27.60;99.90;;;;;;6268957;22;20818;-77
2023/05/28 06:49:30;;;;;;;9.10;3.80;;;28.10;99.90;;;;;;6269510;22;20386;-77
2023/05/28 06:51:55;;;;;;;9.68;4.07;;;28.50;99.90;;;;;;6269773;22;20344;-78
2023/05/28 06:54:21;;;;;;;11.35;4.35;;;28.60;99.90;;;;;;6269689;22;20410;-78
2023/05/28 06:56:46;;;;;;;13.43;4.03;;;28.10;99.90;;;;;;6270344;22;20860;-78
2023/05/28 06:59:12;;;;;;;10.50;5.03;;;27.90;99.90;;;;;;6269768;22;20356;-77
2023/05/28 07:01:37;;;;;;;10.73;5.70;;;28.40;99.90;;;;;;6270310;22;20419;-77
2023/05/28 07:04:03;;;;;;;12.20;8.00;;;28.40;99.90;;;;;;6271003;22;20447;-78
2023/05/28 07:06:28;;;;;;;13.53;8.43;;;29.30;99.90;;;;;;6270735;22;20352;-78
2023/05/28 07:08:54;;;;;;;11.50;7.20;;;28.80;99.90;;;;;;6271036;22;20410;-78
2023/05/28 07:11:20;;;;;;;12.50;8.32;;;29.30;99.90;;;;;;6271732;22;20356;-78
2023/05/28 07:13:46;;;;;;;12.95;8.10;;;29.50;99.90;;;;;;6271675;22;20393;-78
2023/05/28 07:16:12;;;;;;;13.32;7.70;;;29.20;99.90;;;;;;6270996;22;20379;-77
2023/05/28 07:18:37;;;;;;;10.25;7.25;;;29.00;99.90;;;;;;6271242;22;20365;-77
2023/05/28 07:21:05;;;;;;;11.57;7.65;;;29.10;99.90;;;;;;6271195;22;20348;-78
2023/05/28 07:23:31;;;;;;;10.00;5.40;;;29.40;99.90;;;;;;6271199;22;20426;-77
2023/05/28 07:25:56;;;;;;;11.40;4.00;;;29.70;99.90;;;;;;6270911;22;20396;-77
2023/05/28 07:28:22;;;;;;;12.53;3.30;;;29.60;99.90;;;;;;6270763;22;20347;-77
2023/05/28 07:30:48;;;;;;;11.00;4.17;;;29.30;99.90;;;;;;6271102;22;20375;-78
2023/05/28 07:33:13;;;;;;;9.88;4.10;;;30.00;99.90;;;;;;6270969;22;20398;-78
2023/05/28 07:35:39;;;;;;;9.60;4.30;;;30.10;99.90;;;;;;6270822;22;20391;-77
2023/05/28 07:38:04;;;;;;;9.70;3.30;;;30.20;99.90;;;;;;6270996;22;20866;-77
2023/05/28 07:40:30;;;;;;;9.67;4.00;;;30.20;99.90;;;;;;6270748;22;20423;-77
2023/05/28 07:42:55;;;;;;;9.50;3.40;;;30.70;99.90;;;;;;6270834;22;20353;-78
2023/05/28 07:45:21;;;;;;;12.27;4.53;;;31.20;99.90;;;;;;6268726;22;20376;-78
2023/05/28 07:47:46;;;;;;;9.70;4.10;;;31.60;99.90;;;;;;6272161;22;20350;-78
2023/05/28 07:50:12;;;;;;;12.47;5.33;;;32.10;99.90;;;;;;6270709;22;20360;-78
2023/05/28 07:52:40;;;;;;;10.70;7.38;;;31.70;99.90;;;;;;6270329;22;20364;-78
2023/05/28 07:55:06;;;;;;;9.20;4.15;;;32.20;99.90;;;;;;6271001;22;20470;-78
2023/05/28 07:57:32;;;;;;;9.25;3.60;;;32.80;99.90;;;;;;6270232;22;20376;-78
2023/05/28 07:59:57;;;;;;;9.65;3.40;;;32.70;99.90;;;;;;6269947;22;20360;-78
2023/05/28 08:02:23;;;;;;;13.30;4.73;;;32.00;99.90;;;;;;6270413;22;20393;-77
2023/05/28 08:04:49;;;;;;;9.27;4.40;;;32.00;99.90;;;;;;6270565;22;20360;-78
2023/05/28 08:07:15;;;;;;;10.32;4.18;;;32.00;99.90;;;;;;6270102;22;20361;-75
2023/05/28 08:09:43;;;;;;;11.20;4.00;;;32.00;99.90;;;;;;6270519;22;20692;-75
2023/05/28 08:12:09;;;;;;;10.80;3.70;;;31.80;99.90;;;;;;6269819;22;20380;-75
2023/05/28 08:14:35;;;;;;;10.03;4.60;;;31.90;99.90;;;;;;6269611;22;20450;-75
2023/05/28 08:17:00;;;;;;;10.27;5.00;;;32.00;99.90;;;;;;6270605;22;20805;-75
2023/05/28 08:19:26;;;;;;;9.32;4.00;;;32.60;99.90;;;;;;6270142;22;20362;-75
2023/05/28 08:21:52;;;;;;;10.90;4.80;;;32.70;99.90;;;;;;6269880;22;20366;-76
2023/05/28 08:24:20;;;;;;;12.52;6.80;;;33.40;99.90;;;;;;6270665;22;20364;-75
2023/05/28 08:26:46;;;;;;;9.45;3.88;;;33.80;99.90;;;;;;6270235;22;20801;-75
2023/05/28 08:29:11;;;;;;;10.63;3.67;;;33.90;99.90;;;;;;6267624;22;20413;-78
2023/05/28 08:31:39;;;;;;;9.80;4.30;;;33.60;99.90;;;;;;6267419;22;20688;-78
2023/05/28 08:34:05;;;;;;;9.38;4.30;;;32.60;99.90;;;;;;6269919;22;20420;-78
2023/05/28 08:36:31;;;;;;;11.63;7.80;;;32.50;99.90;;;;;;6269453;22;20399;-77
2023/05/28 08:38:56;;;;;;;10.07;7.40;;;32.40;99.90;;;;;;6269770;22;20405;-78
2023/05/28 08:41:25;;;;;;;11.52;8.30;;;33.20;99.90;;;;;;6269855;22;20356;-78
2023/05/28 08:43:50;;;;;;;11.48;7.47;;;33.40;99.90;;;;;;6269829;22;20679;-78
2023/05/28 08:46:18;;;;;;;11.10;8.63;;;32.10;99.90;;;;;;6269948;22;20431;-78
2023/05/28 08:48:45;;;;;;;12.82;7.78;;;31.80;99.90;;;;;;6269621;22;20383;-78
2023/05/28 08:51:11;;;;;;;11.73;7.47;;;32.40;99.90;;;;;;6269537;22;20736;-78
2023/05/28 08:53:43;;;;;;;16.17;7.13;;;33.40;99.90;;;;;;6269400;22;20439;-78
2023/05/28 08:56:09;;;;;;;9.95;7.80;;;34.60;99.90;;;;;;6269776;22;20380;-78
2023/05/28 08:58:41;;;;;;;12.77;7.38;;;34.80;99.90;;;;;;6268854;22;20759;-78
2023/05/28 09:01:08;;;;;;;10.77;7.72;;;;;;;;;;6270818;22;20375;-77
2023/05/28 09:03:34;;;;;;;12.63;8.45;;;34.70;99.90;;;;;;6268739;22;21049;-78
2023/05/28 09:06:00;;;;;;;11.60;8.60;;;35.10;99.90;;;;;;6266979;22;20368;-78
2023/05/28 09:08:26;;;;;;;14.37;12.87;;;34.80;99.90;;;;;;6268561;22;20367;-78
2023/05/28 09:10:51;;;;;;;11.33;10.03;;;34.10;99.90;;;;;;6268762;22;20360;-78
2023/05/28 09:13:20;;;;;;;11.40;10.20;;;34.30;99.90;;;;;;6269614;22;20455;-78
2023/05/28 09:15:50;;;;;;;11.15;4.30;;;34.90;99.90;;;;;;6270370;22;20411;-78
2023/05/28 09:18:20;;;;;;;11.60;4.30;;;34.90;99.90;;;;;;6268051;22;20372;-78
2023/05/28 09:20:47;;;;;;;9.15;3.28;;;35.40;99.90;;;;;;6269971;22;20353;-78
2023/05/28 09:23:16;;;;;;;12.23;4.73;;;35.00;99.90;;;;;;6269039;22;20377;-78
2023/05/28 09:25:42;;;;;;;9.00;3.37;;;34.90;99.90;;;;;;6268584;22;20355;-78
2023/05/28 09:28:07;;;;;;;10.27;3.60;;;35.70;99.90;;;;;;6269311;22;20372;-78
2023/05/28 09:30:37;;;;;;;12.83;7.27;;;35.70;99.90;;;;;;6268271;22;20823;-78
2023/05/28 09:33:03;;;;;;;14.65;5.18;;;34.90;99.90;;;;;;6266302;22;20379;-78
2023/05/28 09:35:30;;;;;;;11.00;4.97;;;35.20;99.90;;;;;;6270004;22;20406;-78
2023/05/28 09:38:07;;;;;;;11.02;6.80;;;34.90;99.90;;;;;;6269019;22;20356;-78
2023/05/28 09:40:41;;;;;;;9.75;4.88;;;35.00;99.90;;;;;;6268837;22;20815;-78
2023/05/28 09:43:08;;;;;;;11.15;4.40;;;35.10;99.90;;;;;;6268980;22;21051;-78
2023/05/28 09:45:34;;;;;;;9.27;6.07;;;35.20;99.90;;;;;;6268687;22;20371;-78
2023/05/28 09:48:00;;;;;;;11.75;8.52;;;35.00;99.90;;;;;;6268787;22;20390;-78
2023/05/28 09:50:27;;;;;;;9.30;8.10;;;34.70;99.90;;;;;;6269313;22;20364;-78
2023/05/28 09:52:55;;;;;;;12.77;7.65;;;34.40;99.90;;;;;;6268957;22;20383;-78
2023/05/28 09:55:25;;;;;;;10.20;7.00;;;33.50;99.90;;;;;;6268456;22;20504;-78
2023/05/28 09:58:06;;;;;;;11.75;7.38;;;33.80;99.90;;;;;;6268913;22;20372;-78
2023/05/28 10:00:38;;;;;;;10.65;8.60;;;34.30;99.90;;;;;;6268899;22;20360;-78
2023/05/28 10:03:24;;;;;;;11.23;7.20;;;33.60;99.90;;;;;;6269447;22;20356;-78
2023/05/28 10:05:59;;;;;;;11.88;6.93;;;33.20;99.90;;;;;;6269639;22;20360;-78
2023/05/28 10:08:26;;;;;;;17.15;7.50;;;33.60;99.90;;;;;;6268867;22;20414;-78
2023/05/28 10:10:53;;;;;;;10.83;7.23;;;34.30;99.90;;;;;;6269347;22;20388;-78
2023/05/28 10:13:20;;;;;;;10.43;6.70;;;34.50;99.90;;;;;;6269586;22;20850;-78
2023/05/28 10:15:46;;;;;;;11.80;7.55;;;33.20;99.90;;;;;;6270028;22;20384;-78
2023/05/28 10:18:14;;;;;;;12.70;8.70;;;33.10;99.90;;;;;;6269706;22;20348;-78
2023/05/28 10:20:40;;;;;;;11.48;7.40;;;32.80;99.90;;;;;;6269367;22;20344;-78
2023/05/28 10:23:07;;;;;;;12.90;8.10;;;32.40;99.90;;;;;;6269017;22;20356;-78
2023/05/28 10:25:33;;;;;;;9.50;7.80;;;32.70;99.90;;;;;;6268559;22;20360;-78
2023/05/28 10:28:02;;;;;;;9.93;7.10;;;32.80;99.90;;;;;;6269245;22;20371;-78
2023/05/28 10:30:32;;;;;;;12.55;7.07;;;32.60;99.90;;;;;;6269456;22;20433;-78
2023/05/28 10:32:58;;;;;;;12.05;7.68;;;31.40;99.90;;;;;;6268955;22;20803;-78
2023/05/28 10:35:23;;;;;;;10.32;7.25;;;30.80;99.90;;;;;;6268728;22;20387;-78
2023/05/28 10:37:49;;;;;;;9.25;7.78;;;29.70;99.90;;;;;;6271548;22;20410;-78
2023/05/28 10:40:24;;;;;;;15.48;7.20;;;29.50;99.90;;;;;;6270770;22;20352;-77
2023/05/28 10:42:49;;;;;;;12.85;8.55;;;28.80;99.90;;;;;;6271351;22;20682;-78
2023/05/28 10:45:15;;;;;;;14.68;9.20;;;28.60;99.90;;;;;;6270935;22;20366;-77
2023/05/28 10:47:50;;;;;;;12.80;9.15;;;28.50;99.90;;;;;;6271193;22;20431;-78
2023/05/28 10:50:17;;;;;;;11.38;8.50;;;28.60;99.90;;;;;;6271797;22;20364;-79
2023/05/28 10:52:42;;;;;;;10.50;9.10;;;28.80;99.90;;;;;;6271099;22;20352;-78
2023/05/28 10:55:12;;;;;;;10.77;8.10;;;28.70;99.90;;;;;;6271032;22;20723;-76
2023/05/28 10:57:47;;;;;;;11.15;7.10;;;29.20;99.90;;;;;;6271314;22;20368;-77
2023/05/28 11:00:23;;;;;;;10.27;7.30;;;29.10;99.90;;;;;;6271031;22;20347;-77
2023/05/28 11:02:51;;;;;;;11.40;8.20;;;29.20;99.90;;;;;;6271765;22;20928;-77
2023/05/28 11:05:22;;;;;;;14.25;8.18;;;29.20;99.90;;;;;;6271467;22;20355;-77
2023/05/28 11:07:48;;;;;;;11.82;7.63;;;29.40;99.90;;;;;;6271203;22;20356;-77
2023/05/28 11:10:16;;;;;;;11.03;7.60;;;29.60;99.90;;;;;;6270278;22;20375;-77
2023/05/28 11:12:44;;;;;;;10.02;7.72;;;29.20;99.90;;;;;;6271966;22;20811;-81
2023/05/28 11:15:12;;;;;;;10.10;7.53;;;29.00;99.90;;;;;;6269942;22;20436;-78
2023/05/28 11:17:44;;;;;;;8.90;7.47;;;28.70;99.90;;;;;;6270628;22;20368;-77
2023/05/28 11:20:26;;;;;;;11.55;7.82;;;28.80;99.90;;;;;;6270648;22;20668;-76
2023/05/28 11:22:53;;;;;;;11.00;8.15;;;28.70;99.90;;;;;;6270460;22;20352;-77
2023/05/28 11:25:21;;;;;;;11.93;8.07;;;29.00;99.90;;;;;;6272058;22;20386;-77
2023/05/28 11:27:48;;;;;;;9.50;7.80;;;29.00;99.90;;;;;;6271217;22;20364;-77
2023/05/28 11:30:16;;;;;;;11.00;8.40;;;29.00;99.90;;;;;;6270334;22;20657;-77
2023/05/28 11:32:42;;;;;;;13.07;7.95;;;28.80;99.90;;;;;;6273502;22;20894;-78
2023/05/28 11:35:12;;;;;;;12.48;8.15;;;29.90;99.90;;;;;;6272635;22;20394;-78
2023/05/28 11:37:39;;;;;;;11.30;8.00;;;28.90;99.90;;;;;;6272126;22;20351;-78
2023/05/28 11:40:10;;;;;;;10.55;8.25;;;28.80;99.90;;;;;;6271232;22;20391;-77
2023/05/28 11:42:37;;;;;;;14.03;8.40;;;28.50;99.90;;;;;;6271799;22;20387;-77
2023/05/28 11:45:03;;;;;;;12.65;7.40;;;28.60;99.90;;;;;;6272098;22;20880;-77
2023/05/28 11:47:32;;;;;;;10.10;7.60;;;28.30;99.90;;;;;;6270699;22;20362;-77
2023/05/28 11:49:57;;;;;;;12.23;7.90;;;28.50;99.90;;;;;;6271729;22;20649;-77
2023/05/28 11:52:25;;;;;;;13.00;8.20;;;28.50;99.90;;;;;;6270771;22;20362;-77
2023/05/28 11:54:58;;;;;;;12.10;8.35;;;28.30;99.90;;;;;;6271977;22;20391;-78
2023/05/28 11:57:25;;;;;;;11.20;8.23;;;28.40;99.90;;;;;;6273010;22;20668;-78
2023/05/28 12:00:11;;;;;;;10.48;7.75;;;28.60;99.90;;;;;;6270812;22;20731;-77
2023/05/28 12:02:51;;;;;;;11.40;7.90;;;28.40;99.90;;;;;;6270628;22;20399;-77
2023/05/28 12:05:18;;;;;;;12.02;7.80;;;28.10;99.90;;;;;;6271461;22;20348;-77
2023/05/28 12:07:49;;;;;;;10.82;7.95;;;28.20;99.90;;;;;;6270429;22;20698;-77
2023/05/28 12:10:18;;;;;;;11.90;8.30;;;28.50;99.90;;;;;;6271036;22;20439;-77
2023/05/28 12:12:51;;;;;;;11.02;8.30;;;28.80;99.90;;;;;;6270904;22;20431;-78
2023/05/28 12:15:20;;;;;;;11.35;8.15;;;28.30;99.90;;;;;;6271747;22;20407;-77
2023/05/28 12:17:51;;;;;;;10.27;7.57;;;28.20;99.90;;;;;;6270933;22;20368;-75
2023/05/28 12:20:16;;;;;;;10.32;7.63;;;28.20;99.90;;;;;;6270565;22;20352;-77
2023/05/28 12:22:42;;;;;;;10.67;7.67;;;28.40;99.90;;;;;;6271625;22;20353;-77
2023/05/28 12:25:08;;;;;;;9.15;7.75;;;28.80;99.90;;;;;;6270598;22;20449;-78
2023/05/28 12:27:35;;;;;;;10.18;8.07;;;28.80;99.90;;;;;;6270116;22;20356;-77
2023/05/28 12:30:01;;;;;;;10.68;8.32;;;28.90;99.90;;;;;;6269977;22;20799;-77
2023/05/28 12:32:27;;;;;;;10.25;7.85;;;27.60;99.90;;;;;;6269978;22;20443;-77
2023/05/28 12:34:55;;;;;;;11.73;8.10;;;27.20;99.90;;;;;;6269756;22;20902;-77
2023/05/28 12:37:22;;;;;;;11.43;8.15;;;27.40;99.90;;;;;;6270069;22;20371;-77
2023/05/28 12:39:48;;;;;;;13.05;7.25;;;27.80;99.90;;;;;;6270715;22;20366;-77